sensor_id;sensor_type;location;lat;lon;timestamp;P1;durP1;ratioP1;P2;durP2;ratioP2
39600;SDS011;25297;44.758;11.310;2023-03-01T00:01:39;24.23;;;15.05;;
39600;SDS011;25297;44.758;11.310;2023-03-01T00:04:05;26.23;;;15.25;;
39600;SDS011;25297;44.758;11.310;2023-03-01T00:06:31;21.60;;;14.52;;
39600;SDS011;25297;44.758;11.310;2023-03-01T00:08:57;24.58;;;13.68;;
39600;SDS011;25297;44.758;11.310;2023-03-01T00:11:23;22.42;;;14.65;;
39600;SDS011;25297;44.758;11.310;2023-03-01T00:13:52;22.05;;;13.90;;
39600;SDS011;25297;44.758;11.310;2023-03-01T00:16:21;23.52;;;14.63;;
39600;SDS011;25297;44.758;11.310;2023-03-01T00:18:48;21.55;;;14.27;;
39600;SDS011;25297;44.758;11.310;2023-03-01T00:21:15;25.10;;;14.88;;
39600;SDS011;25297;44.758;11.310;2023-03-01T00:23:41;23.63;;;14.98;;
39600;SDS011;25297;44.758;11.310;2023-03-01T00:26:08;21.80;;;14.38;;
39600;SDS011;25297;44.758;11.310;2023-03-01T00:28:35;23.60;;;15.00;;
39600;SDS011;25297;44.758;11.310;2023-03-01T00:31:05;23.55;;;14.32;;
39600;SDS011;25297;44.758;11.310;2023-03-01T00:33:32;24.42;;;13.82;;
39600;SDS011;25297;44.758;11.310;2023-03-01T00:35:59;21.58;;;13.77;;
39600;SDS011;25297;44.758;11.310;2023-03-01T00:38:25;21.52;;;14.98;;
39600;SDS011;25297;44.758;11.310;2023-03-01T00:40:51;23.02;;;14.77;;
39600;SDS011;25297;44.758;11.310;2023-03-01T00:43:16;20.40;;;13.65;;
39600;SDS011;25297;44.758;11.310;2023-03-01T00:45:42;24.83;;;14.23;;
39600;SDS011;25297;44.758;11.310;2023-03-01T00:48:08;23.25;;;14.65;;
39600;SDS011;25297;44.758;11.310;2023-03-01T00:50:34;20.05;;;13.75;;
39600;SDS011;25297;44.758;11.310;2023-03-01T00:52:59;26.00;;;14.82;;
39600;SDS011;25297;44.758;11.310;2023-03-01T00:55:25;21.50;;;15.43;;
39600;SDS011;25297;44.758;11.310;2023-03-01T00:57:51;23.67;;;14.70;;
39600;SDS011;25297;44.758;11.310;2023-03-01T01:00:17;29.27;;;13.98;;
39600;SDS011;25297;44.758;11.310;2023-03-01T01:02:44;22.45;;;14.30;;
39600;SDS011;25297;44.758;11.310;2023-03-01T01:05:10;25.33;;;14.18;;
39600;SDS011;25297;44.758;11.310;2023-03-01T01:07:36;23.25;;;13.68;;
39600;SDS011;25297;44.758;11.310;2023-03-01T01:10:02;27.90;;;15.23;;
39600;SDS011;25297;44.758;11.310;2023-03-01T01:12:28;22.35;;;14.80;;
39600;SDS011;25297;44.758;11.310;2023-03-01T01:14:54;23.85;;;14.23;;
39600;SDS011;25297;44.758;11.310;2023-03-01T01:17:19;26.83;;;13.77;;
39600;SDS011;25297;44.758;11.310;2023-03-01T01:19:45;20.98;;;13.82;;
39600;SDS011;25297;44.758;11.310;2023-03-01T01:22:11;21.48;;;13.32;;
39600;SDS011;25297;44.758;11.310;2023-03-01T01:24:36;23.45;;;13.40;;
39600;SDS011;25297;44.758;11.310;2023-03-01T01:27:02;21.02;;;13.90;;
39600;SDS011;25297;44.758;11.310;2023-03-01T01:29:28;21.70;;;13.82;;
39600;SDS011;25297;44.758;11.310;2023-03-01T01:31:53;22.70;;;14.25;;
39600;SDS011;25297;44.758;11.310;2023-03-01T01:34:20;20.83;;;13.50;;
39600;SDS011;25297;44.758;11.310;2023-03-01T01:36:50;20.13;;;13.45;;
39600;SDS011;25297;44.758;11.310;2023-03-01T01:39:20;18.95;;;13.40;;
39600;SDS011;25297;44.758;11.310;2023-03-01T01:41:46;21.27;;;14.18;;
39600;SDS011;25297;44.758;11.310;2023-03-01T01:44:14;21.48;;;13.68;;
39600;SDS011;25297;44.758;11.310;2023-03-01T01:46:59;20.00;;;13.67;;
39600;SDS011;25297;44.758;11.310;2023-03-01T01:49:32;22.98;;;13.50;;
39600;SDS011;25297;44.758;11.310;2023-03-01T01:54:53;21.13;;;13.10;;
39600;SDS011;25297;44.758;11.310;2023-03-01T01:57:27;19.08;;;12.45;;
39600;SDS011;25297;44.758;11.310;2023-03-01T02:00:03;24.50;;;14.63;;
39600;SDS011;25297;44.758;11.310;2023-03-01T02:02:32;22.25;;;12.88;;
39600;SDS011;25297;44.758;11.310;2023-03-01T02:05:01;21.63;;;13.63;;
39600;SDS011;25297;44.758;11.310;2023-03-01T02:07:35;21.42;;;13.32;;
39600;SDS011;25297;44.758;11.310;2023-03-01T02:10:04;22.25;;;13.55;;
39600;SDS011;25297;44.758;11.310;2023-03-01T02:12:30;22.20;;;13.27;;
39600;SDS011;25297;44.758;11.310;2023-03-01T02:14:57;19.85;;;13.30;;
39600;SDS011;25297;44.758;11.310;2023-03-01T02:17:23;22.27;;;13.63;;
39600;SDS011;25297;44.758;11.310;2023-03-01T02:22:40;21.70;;;14.52;;
39600;SDS011;25297;44.758;11.310;2023-03-01T02:25:22;18.00;;;12.38;;
39600;SDS011;25297;44.758;11.310;2023-03-01T02:30:36;20.75;;;14.25;;
39600;SDS011;25297;44.758;11.310;2023-03-01T02:33:02;19.63;;;12.65;;
39600;SDS011;25297;44.758;11.310;2023-03-01T02:35:33;23.75;;;15.07;;
39600;SDS011;25297;44.758;11.310;2023-03-01T02:38:02;23.25;;;13.80;;
39600;SDS011;25297;44.758;11.310;2023-03-01T02:40:31;21.05;;;14.25;;
39600;SDS011;25297;44.758;11.310;2023-03-01T02:42:59;21.30;;;13.35;;
39600;SDS011;25297;44.758;11.310;2023-03-01T02:45:25;18.25;;;12.35;;
39600;SDS011;25297;44.758;11.310;2023-03-01T02:47:55;20.75;;;13.73;;
39600;SDS011;25297;44.758;11.310;2023-03-01T02:55:52;19.42;;;12.98;;
39600;SDS011;25297;44.758;11.310;2023-03-01T02:58:18;21.83;;;12.90;;
39600;SDS011;25297;44.758;11.310;2023-03-01T03:00:44;20.35;;;13.23;;
39600;SDS011;25297;44.758;11.310;2023-03-01T03:03:17;18.77;;;12.80;;
39600;SDS011;25297;44.758;11.310;2023-03-01T03:05:46;20.38;;;12.75;;
39600;SDS011;25297;44.758;11.310;2023-03-01T03:08:13;25.75;;;13.55;;
39600;SDS011;25297;44.758;11.310;2023-03-01T03:10:48;19.88;;;12.90;;
39600;SDS011;25297;44.758;11.310;2023-03-01T03:13:14;20.33;;;13.15;;
39600;SDS011;25297;44.758;11.310;2023-03-01T03:15:40;22.10;;;12.65;;
39600;SDS011;25297;44.758;11.310;2023-03-01T03:18:08;20.10;;;12.27;;
39600;SDS011;25297;44.758;11.310;2023-03-01T03:20:36;17.02;;;11.90;;
39600;SDS011;25297;44.758;11.310;2023-03-01T03:23:04;19.83;;;12.32;;
39600;SDS011;25297;44.758;11.310;2023-03-01T03:25:29;20.60;;;12.35;;
39600;SDS011;25297;44.758;11.310;2023-03-01T03:27:55;21.75;;;12.88;;
39600;SDS011;25297;44.758;11.310;2023-03-01T03:30:30;20.83;;;12.05;;
39600;SDS011;25297;44.758;11.310;2023-03-01T03:32:56;21.42;;;12.48;;
39600;SDS011;25297;44.758;11.310;2023-03-01T03:35:24;17.55;;;11.82;;
39600;SDS011;25297;44.758;11.310;2023-03-01T03:37:56;20.20;;;12.82;;
39600;SDS011;25297;44.758;11.310;2023-03-01T03:40:40;18.13;;;12.20;;
39600;SDS011;25297;44.758;11.310;2023-03-01T03:43:09;14.48;;;10.65;;
39600;SDS011;25297;44.758;11.310;2023-03-01T03:45:37;19.65;;;11.77;;
39600;SDS011;25297;44.758;11.310;2023-03-01T03:48:03;19.63;;;11.55;;
39600;SDS011;25297;44.758;11.310;2023-03-01T03:50:31;21.25;;;12.32;;
39600;SDS011;25297;44.758;11.310;2023-03-01T03:52:57;16.55;;;10.93;;
39600;SDS011;25297;44.758;11.310;2023-03-01T03:55:25;20.25;;;12.95;;
39600;SDS011;25297;44.758;11.310;2023-03-01T03:57:56;22.30;;;12.52;;
39600;SDS011;25297;44.758;11.310;2023-03-01T04:00:23;20.38;;;12.48;;
39600;SDS011;25297;44.758;11.310;2023-03-01T04:02:50;19.90;;;12.48;;
39600;SDS011;25297;44.758;11.310;2023-03-01T04:05:16;19.40;;;13.15;;
39600;SDS011;25297;44.758;11.310;2023-03-01T04:07:44;18.48;;;11.52;;
39600;SDS011;25297;44.758;11.310;2023-03-01T04:10:11;22.33;;;12.30;;
39600;SDS011;25297;44.758;11.310;2023-03-01T04:12:40;19.20;;;12.40;;
39600;SDS011;25297;44.758;11.310;2023-03-01T04:15:07;20.33;;;12.35;;
39600;SDS011;25297;44.758;11.310;2023-03-01T04:17:47;19.88;;;11.98;;
39600;SDS011;25297;44.758;11.310;2023-03-01T04:20:14;26.40;;;14.18;;
39600;SDS011;25297;44.758;11.310;2023-03-01T04:22:49;23.92;;;14.00;;
39600;SDS011;25297;44.758;11.310;2023-03-01T04:25:16;20.77;;;13.98;;
39600;SDS011;25297;44.758;11.310;2023-03-01T04:27:42;23.35;;;14.98;;
39600;SDS011;25297;44.758;11.310;2023-03-01T04:30:09;24.25;;;14.85;;
39600;SDS011;25297;44.758;11.310;2023-03-01T04:32:35;23.77;;;15.10;;
39600;SDS011;25297;44.758;11.310;2023-03-01T04:35:01;24.88;;;14.95;;
39600;SDS011;25297;44.758;11.310;2023-03-01T04:37:26;29.13;;;14.65;;
39600;SDS011;25297;44.758;11.310;2023-03-01T04:39:52;22.98;;;15.32;;
39600;SDS011;25297;44.758;11.310;2023-03-01T04:42:18;23.05;;;14.52;;
39600;SDS011;25297;44.758;11.310;2023-03-01T04:44:44;22.58;;;14.32;;
39600;SDS011;25297;44.758;11.310;2023-03-01T04:47:10;26.50;;;14.23;;
39600;SDS011;25297;44.758;11.310;2023-03-01T04:49:36;21.88;;;13.70;;
39600;SDS011;25297;44.758;11.310;2023-03-01T04:52:02;20.52;;;13.85;;
39600;SDS011;25297;44.758;11.310;2023-03-01T04:54:29;19.77;;;14.05;;
39600;SDS011;25297;44.758;11.310;2023-03-01T04:56:56;20.40;;;13.25;;
39600;SDS011;25297;44.758;11.310;2023-03-01T04:59:22;20.80;;;13.35;;
39600;SDS011;25297;44.758;11.310;2023-03-01T05:01:48;21.33;;;13.65;;
39600;SDS011;25297;44.758;11.310;2023-03-01T05:04:15;21.55;;;14.02;;
39600;SDS011;25297;44.758;11.310;2023-03-01T05:06:40;19.52;;;13.68;;
39600;SDS011;25297;44.758;11.310;2023-03-01T05:09:06;22.75;;;14.15;;
39600;SDS011;25297;44.758;11.310;2023-03-01T05:11:32;21.30;;;13.25;;
39600;SDS011;25297;44.758;11.310;2023-03-01T05:14:01;21.45;;;12.82;;
39600;SDS011;25297;44.758;11.310;2023-03-01T05:16:27;18.30;;;11.80;;
39600;SDS011;25297;44.758;11.310;2023-03-01T05:18:53;19.42;;;13.00;;
39600;SDS011;25297;44.758;11.310;2023-03-01T05:21:20;20.95;;;13.20;;
39600;SDS011;25297;44.758;11.310;2023-03-01T05:23:46;21.70;;;13.27;;
39600;SDS011;25297;44.758;11.310;2023-03-01T05:26:13;20.25;;;12.95;;
39600;SDS011;25297;44.758;11.310;2023-03-01T05:28:39;20.83;;;12.77;;
39600;SDS011;25297;44.758;11.310;2023-03-01T05:31:05;20.85;;;12.77;;
39600;SDS011;25297;44.758;11.310;2023-03-01T05:33:37;21.05;;;13.07;;
39600;SDS011;25297;44.758;11.310;2023-03-01T05:36:04;18.90;;;12.23;;
39600;SDS011;25297;44.758;11.310;2023-03-01T05:38:34;22.70;;;13.05;;
39600;SDS011;25297;44.758;11.310;2023-03-01T05:41:01;23.83;;;14.18;;
39600;SDS011;25297;44.758;11.310;2023-03-01T05:43:29;21.30;;;13.60;;
39600;SDS011;25297;44.758;11.310;2023-03-01T05:45:57;26.25;;;13.93;;
39600;SDS011;25297;44.758;11.310;2023-03-01T05:48:22;26.60;;;13.68;;
39600;SDS011;25297;44.758;11.310;2023-03-01T05:50:48;23.08;;;13.15;;
39600;SDS011;25297;44.758;11.310;2023-03-01T05:53:18;21.98;;;13.57;;
39600;SDS011;25297;44.758;11.310;2023-03-01T05:55:47;21.67;;;13.00;;
39600;SDS011;25297;44.758;11.310;2023-03-01T05:58:15;19.33;;;12.32;;
39600;SDS011;25297;44.758;11.310;2023-03-01T06:00:43;24.35;;;14.27;;
39600;SDS011;25297;44.758;11.310;2023-03-01T06:03:10;18.83;;;12.65;;
39600;SDS011;25297;44.758;11.310;2023-03-01T06:05:37;24.63;;;13.82;;
39600;SDS011;25297;44.758;11.310;2023-03-01T06:08:04;23.20;;;13.07;;
39600;SDS011;25297;44.758;11.310;2023-03-01T06:10:30;20.42;;;12.02;;
39600;SDS011;25297;44.758;11.310;2023-03-01T06:12:55;23.65;;;13.13;;
39600;SDS011;25297;44.758;11.310;2023-03-01T06:15:22;24.33;;;14.95;;
39600;SDS011;25297;44.758;11.310;2023-03-01T06:17:48;30.10;;;15.80;;
39600;SDS011;25297;44.758;11.310;2023-03-01T06:20:15;28.55;;;15.55;;
39600;SDS011;25297;44.758;11.310;2023-03-01T06:22:43;22.25;;;13.93;;
39600;SDS011;25297;44.758;11.310;2023-03-01T06:25:10;21.15;;;14.25;;
39600;SDS011;25297;44.758;11.310;2023-03-01T06:27:37;22.60;;;14.13;;
39600;SDS011;25297;44.758;11.310;2023-03-01T06:30:03;22.17;;;13.20;;
39600;SDS011;25297;44.758;11.310;2023-03-01T06:32:29;17.92;;;12.20;;
39600;SDS011;25297;44.758;11.310;2023-03-01T06:34:56;21.65;;;12.82;;
39600;SDS011;25297;44.758;11.310;2023-03-01T06:37:23;24.38;;;14.20;;
39600;SDS011;25297;44.758;11.310;2023-03-01T06:39:49;22.27;;;13.63;;
39600;SDS011;25297;44.758;11.310;2023-03-01T06:42:15;20.10;;;12.95;;
39600;SDS011;25297;44.758;11.310;2023-03-01T06:44:41;21.65;;;13.60;;
39600;SDS011;25297;44.758;11.310;2023-03-01T06:47:07;21.35;;;12.48;;
39600;SDS011;25297;44.758;11.310;2023-03-01T06:49:32;21.00;;;12.68;;
39600;SDS011;25297;44.758;11.310;2023-03-01T06:51:58;21.58;;;13.48;;
39600;SDS011;25297;44.758;11.310;2023-03-01T06:54:24;21.73;;;12.77;;
39600;SDS011;25297;44.758;11.310;2023-03-01T06:56:50;23.10;;;12.63;;
39600;SDS011;25297;44.758;11.310;2023-03-01T06:59:16;22.13;;;12.70;;
39600;SDS011;25297;44.758;11.310;2023-03-01T07:01:42;18.77;;;12.20;;
39600;SDS011;25297;44.758;11.310;2023-03-01T07:04:08;21.65;;;12.60;;
39600;SDS011;25297;44.758;11.310;2023-03-01T07:06:35;23.30;;;12.73;;
39600;SDS011;25297;44.758;11.310;2023-03-01T07:09:00;21.83;;;12.38;;
39600;SDS011;25297;44.758;11.310;2023-03-01T07:11:26;22.58;;;13.15;;
39600;SDS011;25297;44.758;11.310;2023-03-01T07:13:51;21.23;;;12.07;;
39600;SDS011;25297;44.758;11.310;2023-03-01T07:16:17;22.00;;;13.07;;
39600;SDS011;25297;44.758;11.310;2023-03-01T07:18:45;21.58;;;12.75;;
39600;SDS011;25297;44.758;11.310;2023-03-01T07:21:11;21.60;;;12.43;;
39600;SDS011;25297;44.758;11.310;2023-03-01T07:23:39;19.45;;;12.85;;
39600;SDS011;25297;44.758;11.310;2023-03-01T07:26:05;23.52;;;12.73;;
39600;SDS011;25297;44.758;11.310;2023-03-01T07:28:30;21.13;;;13.45;;
39600;SDS011;25297;44.758;11.310;2023-03-01T07:31:01;20.63;;;12.95;;
39600;SDS011;25297;44.758;11.310;2023-03-01T07:33:27;24.05;;;13.85;;
39600;SDS011;25297;44.758;11.310;2023-03-01T07:35:57;22.33;;;13.02;;
39600;SDS011;25297;44.758;11.310;2023-03-01T07:38:24;21.47;;;13.60;;
39600;SDS011;25297;44.758;11.310;2023-03-01T07:40:50;22.70;;;12.63;;
39600;SDS011;25297;44.758;11.310;2023-03-01T07:43:15;25.95;;;12.70;;
39600;SDS011;25297;44.758;11.310;2023-03-01T07:45:41;20.05;;;12.80;;
39600;SDS011;25297;44.758;11.310;2023-03-01T07:48:07;21.20;;;12.63;;
39600;SDS011;25297;44.758;11.310;2023-03-01T07:50:32;23.10;;;12.43;;
39600;SDS011;25297;44.758;11.310;2023-03-01T07:52:58;20.00;;;12.48;;
39600;SDS011;25297;44.758;11.310;2023-03-01T07:55:23;22.02;;;13.00;;
39600;SDS011;25297;44.758;11.310;2023-03-01T07:57:49;21.98;;;12.70;;
39600;SDS011;25297;44.758;11.310;2023-03-01T08:00:15;21.60;;;12.60;;
39600;SDS011;25297;44.758;11.310;2023-03-01T08:02:40;20.25;;;12.90;;
39600;SDS011;25297;44.758;11.310;2023-03-01T08:05:07;20.60;;;12.82;;
39600;SDS011;25297;44.758;11.310;2023-03-01T08:07:34;20.42;;;12.45;;
39600;SDS011;25297;44.758;11.310;2023-03-01T08:10:00;22.33;;;13.60;;
39600;SDS011;25297;44.758;11.310;2023-03-01T08:12:25;27.42;;;12.98;;
39600;SDS011;25297;44.758;11.310;2023-03-01T08:14:53;21.85;;;12.70;;
39600;SDS011;25297;44.758;11.310;2023-03-01T08:17:18;24.17;;;13.30;;
39600;SDS011;25297;44.758;11.310;2023-03-01T08:19:44;22.17;;;12.23;;
39600;SDS011;25297;44.758;11.310;2023-03-01T08:22:10;20.17;;;13.07;;
39600;SDS011;25297;44.758;11.310;2023-03-01T08:24:35;21.55;;;12.10;;
39600;SDS011;25297;44.758;11.310;2023-03-01T08:27:01;27.20;;;12.55;;
39600;SDS011;25297;44.758;11.310;2023-03-01T08:29:27;20.73;;;11.60;;
39600;SDS011;25297;44.758;11.310;2023-03-01T08:31:55;20.85;;;12.75;;
39600;SDS011;25297;44.758;11.310;2023-03-01T08:34:21;23.35;;;13.50;;
39600;SDS011;25297;44.758;11.310;2023-03-01T08:36:46;21.10;;;13.10;;
39600;SDS011;25297;44.758;11.310;2023-03-01T08:39:14;19.65;;;12.20;;
39600;SDS011;25297;44.758;11.310;2023-03-01T08:41:41;20.58;;;12.93;;
39600;SDS011;25297;44.758;11.310;2023-03-01T08:44:07;25.27;;;13.15;;
39600;SDS011;25297;44.758;11.310;2023-03-01T08:46:35;20.77;;;12.43;;
39600;SDS011;25297;44.758;11.310;2023-03-01T08:49:05;19.92;;;12.68;;
39600;SDS011;25297;44.758;11.310;2023-03-01T08:51:32;22.35;;;13.48;;
39600;SDS011;25297;44.758;11.310;2023-03-01T08:54:02;23.70;;;14.88;;
39600;SDS011;25297;44.758;11.310;2023-03-01T08:56:29;26.42;;;14.95;;
39600;SDS011;25297;44.758;11.310;2023-03-01T08:58:54;22.05;;;13.35;;
39600;SDS011;25297;44.758;11.310;2023-03-01T09:01:20;22.75;;;13.23;;
39600;SDS011;25297;44.758;11.310;2023-03-01T09:03:46;23.17;;;12.80;;
39600;SDS011;25297;44.758;11.310;2023-03-01T09:06:13;22.17;;;13.40;;
39600;SDS011;25297;44.758;11.310;2023-03-01T09:08:40;22.10;;;13.75;;
39600;SDS011;25297;44.758;11.310;2023-03-01T09:11:09;24.05;;;13.10;;
39600;SDS011;25297;44.758;11.310;2023-03-01T09:13:36;21.65;;;13.20;;
39600;SDS011;25297;44.758;11.310;2023-03-01T09:16:03;27.55;;;14.57;;
39600;SDS011;25297;44.758;11.310;2023-03-01T09:18:31;24.75;;;13.55;;
39600;SDS011;25297;44.758;11.310;2023-03-01T09:21:03;25.75;;;14.00;;
39600;SDS011;25297;44.758;11.310;2023-03-01T09:23:33;24.45;;;13.43;;
39600;SDS011;25297;44.758;11.310;2023-03-01T09:28:34;24.05;;;14.43;;
39600;SDS011;25297;44.758;11.310;2023-03-01T09:31:01;26.05;;;15.10;;
39600;SDS011;25297;44.758;11.310;2023-03-01T09:33:29;27.17;;;15.50;;
39600;SDS011;25297;44.758;11.310;2023-03-01T09:35:56;23.95;;;15.40;;
39600;SDS011;25297;44.758;11.310;2023-03-01T09:38:29;27.05;;;15.57;;
39600;SDS011;25297;44.758;11.310;2023-03-01T09:40:55;26.83;;;16.33;;
39600;SDS011;25297;44.758;11.310;2023-03-01T09:45:47;30.75;;;16.90;;
39600;SDS011;25297;44.758;11.310;2023-03-01T09:48:16;26.50;;;16.95;;
39600;SDS011;25297;44.758;11.310;2023-03-01T09:50:47;27.27;;;17.63;;
39600;SDS011;25297;44.758;11.310;2023-03-01T09:53:13;29.98;;;17.05;;
39600;SDS011;25297;44.758;11.310;2023-03-01T09:56:00;29.35;;;17.38;;
39600;SDS011;25297;44.758;11.310;2023-03-01T09:58:37;33.13;;;17.65;;
39600;SDS011;25297;44.758;11.310;2023-03-01T10:01:19;29.42;;;17.40;;
39600;SDS011;25297;44.758;11.310;2023-03-01T10:09:52;22.20;;;15.65;;
39600;SDS011;25297;44.758;11.310;2023-03-01T10:12:18;24.85;;;15.80;;
39600;SDS011;25297;44.758;11.310;2023-03-01T10:14:53;23.50;;;17.02;;
39600;SDS011;25297;44.758;11.310;2023-03-01T10:20:19;28.50;;;16.48;;
39600;SDS011;25297;44.758;11.310;2023-03-01T10:22:45;31.83;;;17.02;;
39600;SDS011;25297;44.758;11.310;2023-03-01T10:25:15;29.73;;;16.35;;
39600;SDS011;25297;44.758;11.310;2023-03-01T10:27:52;27.85;;;17.58;;
39600;SDS011;25297;44.758;11.310;2023-03-01T10:30:29;26.60;;;17.55;;
39600;SDS011;25297;44.758;11.310;2023-03-01T10:33:04;30.00;;;17.38;;
39600;SDS011;25297;44.758;11.310;2023-03-01T10:35:48;29.48;;;17.05;;
39600;SDS011;25297;44.758;11.310;2023-03-01T10:38:14;28.15;;;16.60;;
39600;SDS011;25297;44.758;11.310;2023-03-01T10:40:57;27.77;;;17.10;;
39600;SDS011;25297;44.758;11.310;2023-03-01T10:43:45;31.67;;;17.08;;
39600;SDS011;25297;44.758;11.310;2023-03-01T10:46:22;30.57;;;17.97;;
39600;SDS011;25297;44.758;11.310;2023-03-01T10:51:47;29.52;;;17.25;;
39600;SDS011;25297;44.758;11.310;2023-03-01T10:56:52;27.20;;;18.00;;
39600;SDS011;25297;44.758;11.310;2023-03-01T11:05:28;30.55;;;18.00;;
39600;SDS011;25297;44.758;11.310;2023-03-01T11:07:28;28.33;;;17.90;;
39600;SDS011;25297;44.758;11.310;2023-03-01T11:09:54;34.13;;;19.85;;
39600;SDS011;25297;44.758;11.310;2023-03-01T11:12:20;27.20;;;16.88;;
39600;SDS011;25297;44.758;11.310;2023-03-01T11:14:53;25.17;;;16.60;;
39600;SDS011;25297;44.758;11.310;2023-03-01T11:17:30;27.27;;;17.83;;
39600;SDS011;25297;44.758;11.310;2023-03-01T11:20:45;30.25;;;17.73;;
39600;SDS011;25297;44.758;11.310;2023-03-01T11:23:12;29.95;;;17.80;;
39600;SDS011;25297;44.758;11.310;2023-03-01T11:25:40;30.30;;;18.67;;
39600;SDS011;25297;44.758;11.310;2023-03-01T11:28:10;32.60;;;18.20;;
39600;SDS011;25297;44.758;11.310;2023-03-01T11:30:45;32.13;;;19.42;;
39600;SDS011;25297;44.758;11.310;2023-03-01T11:36:19;35.67;;;21.48;;
39600;SDS011;25297;44.758;11.310;2023-03-01T11:42:05;31.90;;;18.58;;
39600;SDS011;25297;44.758;11.310;2023-03-01T11:44:40;28.23;;;17.95;;
39600;SDS011;25297;44.758;11.310;2023-03-01T11:50:16;30.42;;;18.23;;
39600;SDS011;25297;44.758;11.310;2023-03-01T11:55:25;27.88;;;18.17;;
39600;SDS011;25297;44.758;11.310;2023-03-01T12:12:07;30.20;;;18.20;;
39600;SDS011;25297;44.758;11.310;2023-03-01T12:17:46;28.85;;;18.13;;
39600;SDS011;25297;44.758;11.310;2023-03-01T12:20:32;28.50;;;18.58;;
39600;SDS011;25297;44.758;11.310;2023-03-01T12:26:10;29.25;;;19.05;;
39600;SDS011;25297;44.758;11.310;2023-03-01T12:29:01;29.83;;;19.23;;
39600;SDS011;25297;44.758;11.310;2023-03-01T12:35:05;31.13;;;18.77;;
39600;SDS011;25297;44.758;11.310;2023-03-01T12:45:44;29.13;;;18.67;;
39600;SDS011;25297;44.758;11.310;2023-03-01T12:50:52;32.63;;;21.33;;
39600;SDS011;25297;44.758;11.310;2023-03-01T12:53:28;30.67;;;19.77;;
39600;SDS011;25297;44.758;11.310;2023-03-01T12:56:00;33.75;;;20.50;;
39600;SDS011;25297;44.758;11.310;2023-03-01T12:58:31;34.80;;;20.73;;
39600;SDS011;25297;44.758;11.310;2023-03-01T13:01:26;29.88;;;19.08;;
39600;SDS011;25297;44.758;11.310;2023-03-01T13:09:14;34.03;;;20.42;;
39600;SDS011;25297;44.758;11.310;2023-03-01T13:11:45;27.40;;;18.75;;
39600;SDS011;25297;44.758;11.310;2023-03-01T13:14:53;32.03;;;18.60;;
39600;SDS011;25297;44.758;11.310;2023-03-01T13:17:00;28.58;;;18.13;;
39600;SDS011;25297;44.758;11.310;2023-03-01T13:19:26;33.75;;;20.58;;
39600;SDS011;25297;44.758;11.310;2023-03-01T13:22:01;33.72;;;22.25;;
39600;SDS011;25297;44.758;11.310;2023-03-01T13:25:01;32.53;;;20.77;;
39600;SDS011;25297;44.758;11.310;2023-03-01T13:27:38;30.48;;;19.98;;
39600;SDS011;25297;44.758;11.310;2023-03-01T13:30:12;34.20;;;19.77;;
39600;SDS011;25297;44.758;11.310;2023-03-01T13:36:08;32.20;;;19.85;;
39600;SDS011;25297;44.758;11.310;2023-03-01T13:38:47;33.67;;;20.00;;
39600;SDS011;25297;44.758;11.310;2023-03-01T13:44:11;24.25;;;16.95;;
39600;SDS011;25297;44.758;11.310;2023-03-01T13:47:36;30.17;;;18.77;;
39600;SDS011;25297;44.758;11.310;2023-03-01T13:49:44;27.83;;;17.35;;
39600;SDS011;25297;44.758;11.310;2023-03-01T13:57:39;27.05;;;17.40;;
39600;SDS011;25297;44.758;11.310;2023-03-01T14:00:06;28.60;;;17.40;;
39600;SDS011;25297;44.758;11.310;2023-03-01T14:02:59;27.65;;;16.60;;
39600;SDS011;25297;44.758;11.310;2023-03-01T14:06:01;29.30;;;17.67;;
39600;SDS011;25297;44.758;11.310;2023-03-01T14:08:31;29.88;;;18.63;;
39600;SDS011;25297;44.758;11.310;2023-03-01T14:13:59;28.92;;;17.90;;
39600;SDS011;25297;44.758;11.310;2023-03-01T14:19:47;27.20;;;16.33;;
39600;SDS011;25297;44.758;11.310;2023-03-01T14:24:50;26.67;;;17.42;;
39600;SDS011;25297;44.758;11.310;2023-03-01T14:27:18;24.30;;;16.30;;
39600;SDS011;25297;44.758;11.310;2023-03-01T14:29:44;26.30;;;16.85;;
39600;SDS011;25297;44.758;11.310;2023-03-01T14:32:21;27.70;;;17.52;;
39600;SDS011;25297;44.758;11.310;2023-03-01T14:34:50;27.15;;;17.90;;
39600;SDS011;25297;44.758;11.310;2023-03-01T14:37:24;25.40;;;17.63;;
39600;SDS011;25297;44.758;11.310;2023-03-01T14:39:52;28.33;;;17.05;;
39600;SDS011;25297;44.758;11.310;2023-03-01T14:42:19;31.55;;;17.42;;
39600;SDS011;25297;44.758;11.310;2023-03-01T14:44:47;28.15;;;17.80;;
39600;SDS011;25297;44.758;11.310;2023-03-01T14:47:15;29.10;;;18.02;;
39600;SDS011;25297;44.758;11.310;2023-03-01T14:49:49;31.02;;;19.73;;
39600;SDS011;25297;44.758;11.310;2023-03-01T14:52:22;28.33;;;19.10;;
39600;SDS011;25297;44.758;11.310;2023-03-01T14:54:56;35.85;;;19.70;;
39600;SDS011;25297;44.758;11.310;2023-03-01T14:57:23;30.30;;;18.77;;
39600;SDS011;25297;44.758;11.310;2023-03-01T14:59:51;30.60;;;17.85;;
39600;SDS011;25297;44.758;11.310;2023-03-01T15:02:21;28.45;;;17.88;;
39600;SDS011;25297;44.758;11.310;2023-03-01T15:04:49;28.05;;;17.48;;
39600;SDS011;25297;44.758;11.310;2023-03-01T15:07:17;27.08;;;16.92;;
39600;SDS011;25297;44.758;11.310;2023-03-01T15:09:44;26.88;;;17.55;;
39600;SDS011;25297;44.758;11.310;2023-03-01T15:14:57;27.55;;;18.00;;
39600;SDS011;25297;44.758;11.310;2023-03-01T15:17:28;28.30;;;17.80;;
39600;SDS011;25297;44.758;11.310;2023-03-01T15:19:56;33.25;;;18.83;;
39600;SDS011;25297;44.758;11.310;2023-03-01T15:22:21;27.02;;;19.98;;
39600;SDS011;25297;44.758;11.310;2023-03-01T15:24:50;26.35;;;16.75;;
39600;SDS011;25297;44.758;11.310;2023-03-01T15:27:17;26.58;;;16.35;;
39600;SDS011;25297;44.758;11.310;2023-03-01T15:29:50;28.17;;;17.02;;
39600;SDS011;25297;44.758;11.310;2023-03-01T15:34:57;27.23;;;18.15;;
39600;SDS011;25297;44.758;11.310;2023-03-01T15:37:40;28.08;;;18.25;;
39600;SDS011;25297;44.758;11.310;2023-03-01T15:40:25;28.67;;;13.68;;
39600;SDS011;25297;44.758;11.310;2023-03-01T15:43:05;26.10;;;14.90;;
39600;SDS011;25297;44.758;11.310;2023-03-01T15:45:32;21.08;;;12.82;;
39600;SDS011;25297;44.758;11.310;2023-03-01T15:48:04;34.45;;;21.10;;
39600;SDS011;25297;44.758;11.310;2023-03-01T15:50:40;20.00;;;8.63;;
39600;SDS011;25297;44.758;11.310;2023-03-01T15:53:10;18.55;;;8.98;;
39600;SDS011;25297;44.758;11.310;2023-03-01T15:55:39;17.90;;;9.45;;
39600;SDS011;25297;44.758;11.310;2023-03-01T15:58:21;29.35;;;13.32;;
39600;SDS011;25297;44.758;11.310;2023-03-01T16:00:49;17.92;;;7.57;;
39600;SDS011;25297;44.758;11.310;2023-03-01T16:03:20;16.35;;;7.68;;
39600;SDS011;25297;44.758;11.310;2023-03-01T16:05:47;14.27;;;7.80;;
39600;SDS011;25297;44.758;11.310;2023-03-01T16:08:14;28.35;;;11.43;;
39600;SDS011;25297;44.758;11.310;2023-03-01T16:10:41;20.35;;;8.95;;
39600;SDS011;25297;44.758;11.310;2023-03-01T16:13:10;20.48;;;9.25;;
39600;SDS011;25297;44.758;11.310;2023-03-01T16:15:37;14.93;;;6.68;;
39600;SDS011;25297;44.758;11.310;2023-03-01T16:18:04;20.73;;;8.48;;